Ramona, California
Current Conditions -  °F | °C
As of 2:08 AM on Friday 19 Dec 2014 (Local Time) from KRNM Reporting Station
Haze Haze  
Wind Chill: 39°   Ceiling: Unl
Heat Index: 39°   Visibility: 1mi
Dew Point: 38°   Wind: 0mph
Humidity: 96%   Direction: NA
Pressure: 30.2"   Gusts: NA
Location:  33.04°N, 116.86°W
Report Text: KRNM 191008Z AUTO 00000KT 1SM BR CLR 04/03 A3020 RMK AO2 VIS 1/2V3 T00390033 $
Loading
Personal Weather Stations






























Interactive Weather Map New forecast layout! Learn more

10-Day Weather Forecast

Advertisements
Track Severe Weather on mobile